Flight Track Log - Related Links

Times and Time Zones

All times are in EDT time to prevent confusion due to time zone crossing. See the EJA646 flight status page for this flight to view local times or setup timezone preferences in your user account.

Time Position Orientation Groundspeed Altitude Reporting Facility
EDT Latitude Longitude Course Direction KTS MPH feet Rate Location/Type
Wed 02:01:00 PM 39.1167 -78.1167 288° West 173 199 2,600  Level Potomac TRACON
Wed 02:02:00 PM 39.0833 -78.1000 159° South 213 245 6,300 3,218 Climbing Potomac TRACON
Wed 02:02:50 PM 39.0244 -78.1192 194° South 257 296 8,500 2,891 Climbing Washington Center
Wed 02:03:50 PM 38.9422 -78.1644 203° Southwest 292 336 11,600 2,850 Climbing Washington Center
Wed 02:04:50 PM 38.8831 -78.1969 203° Southwest 310 357 14,200 2,650 Climbing Washington Center
Wed 02:05:50 PM 38.8536 -78.3053 251° West 288 331 16,900 2,430 Climbing Washington Center
Wed 02:06:00 PM 38.8217 -78.0533 288° West  Level FlightAware Approximate
Wed 02:06:51 PM 38.8511 -78.4092 268° West 280 322 19,100  Level Washington Center
Wed 02:07:50 PM 38.8503 -78.5397 270° West 322 371 21,100 1,450 Climbing Washington Center
Wed 02:08:51 PM 38.8508 -78.6758 270° West 361 415 22,000 200 Climbing Washington Center
Wed 02:09:50 PM 38.8494 -78.8144 269° West 377 434 21,500 -807 Descending Washington Center
Wed 02:10:50 PM 38.8442 -78.9314 267° West 378 435 20,400 -750 Descending Washington Center
Wed 02:11:50 PM 38.8419 -79.0806 269° West 378 435 20,000 -198 Descending Washington Center
Wed 02:12:51 PM 38.8400 -79.2136 269° West 392 451 20,000  Level Washington Center
Wed 02:13:51 PM 38.8217 -79.3433 260° West 387 445 20,000  Level Washington Center
Wed 02:14:51 PM 38.8031 -79.4650 259° West 368 423 20,000  Level Washington Center
Wed 02:15:50 PM 38.7864 -79.5892 260° West 348 400 20,000  Level Washington Center
Wed 02:16:51 PM 38.7719 -79.7083 261° West 343 395 20,000  Level Washington Center
Wed 02:17:50 PM 38.7556 -79.8247 260° West 343 395 20,000  Level Washington Center
Wed 02:18:51 PM 38.7408 -79.9436 261° West 343 395 20,000  Level Washington Center
Wed 02:19:51 PM 38.7264 -80.0492 260° West 343 395 20,000  Level Washington Center
Wed 02:20:50 PM 38.7094 -80.1706 260° West 348 400 20,000  Level Washington Center
Wed 02:22:06 PM 38.6883 -80.3225 260° West 341 392 20,000  Level Indianapolis Center
Wed 02:23:08 PM 38.6728 -80.4411 261° West 338 389 20,000  Level Indianapolis Center
Wed 02:24:09 PM 38.6567 -80.5597 260° West 339 390 20,000  Level Indianapolis Center
Wed 02:25:11 PM 38.6411 -80.6761 260° West 334 384 20,000 -194 Level Indianapolis Center
Wed 02:26:13 PM 38.6258 -80.7917 260° West 330 380 19,600 -878 Descending Indianapolis Center
Wed 02:27:14 PM 38.6086 -80.9169 260° West 354 407 18,200 -1,268 Descending Indianapolis Center
Wed 02:28:16 PM 38.5908 -81.0447 260° West 364 419 17,000 -1,452 Descending Indianapolis Center
Wed 02:29:18 PM 38.5686 -81.1956 259° West 359 413 15,200 -1,561 Descending Indianapolis Center
Wed 02:30:19 PM 38.5511 -81.3228 260° West 361 415 13,800 -1,415 Descending Indianapolis Center
Wed 02:31:21 PM 38.5325 -81.4492 259° West 358 412 12,300 -1,355 Descending Indianapolis Center
Wed 02:32:23 PM 38.5158 -81.5694 260° West 341 392 11,000 -629 Descending Indianapolis Center
Wed 02:33:25 PM 38.5000 -81.6806 260° West 318 366 11,000  Level Indianapolis Center
Wed 02:34:26 PM 38.4836 -81.7906 259° West 314 361 11,000  Level Indianapolis Center
Wed 02:35:28 PM 38.4681 -81.8989 260° West 311 358 11,000 -97 Level Indianapolis Center
Wed 02:36:30 PM 38.4522 -82.0069 259° West 308 354 10,800 -732 Descending Indianapolis Center
Wed 02:37:31 PM 38.4361 -82.1114 259° West 301 346 9,500 -1,463 Descending Indianapolis Center
Wed 02:38:33 PM 38.4214 -82.2117 259° West 290 334 7,800 -1,984 Descending Indianapolis Center
Wed 02:39:35 PM 38.4067 -82.3086 259° West 280 322 5,400 -2,323 Descending Indianapolis Center
Wed 02:40:37 PM 38.3903 -82.4208 259° West 271 312 3,000 -1,171 Descending Indianapolis Center
Wed 02:41:38 PM 38.3967 -82.4889 277° West 212 244 3,000 -195 Level Indianapolis Center
Wed 02:42:40 PM 38.4156 -82.5600 289° West 200 230 2,600 -339 Descending Indianapolis Center
Wed 02:43:42 PM 38.4019 -82.6042 249° West 181 208 2,300 -629 Descending Indianapolis Center
Wed 02:44:44 PM 38.3794 -82.5961 164° South 132 152 1,300 -968 Descending Indianapolis Center
Wed 02:46:00 PM 38.3685 -82.5604 90° East  Level Estimated
Wed 02:53:00 PM 38.3685 -82.5604 90° East  Level Estimated

Login

Don't have an account? Register now (free) for customized features, flight alerts, and more!